sensor_id;sensor_type;location;lat;lon;timestamp;pressure;altitude;pressure_sealevel;temperature;humidity
53270;BME280;39159;45.634;9.420;2023-08-01T00:00:49;98186.38;;;24.00;100.00
53270;BME280;39159;45.634;9.420;2023-08-01T00:03:15;98179.22;;;23.99;100.00
53270;BME280;39159;45.634;9.420;2023-08-01T00:05:40;98185.69;;;23.93;100.00
53270;BME280;39159;45.634;9.420;2023-08-01T00:08:11;98194.03;;;23.93;100.00
53270;BME280;39159;45.634;9.420;2023-08-01T00:10:38;98186.84;;;23.95;100.00
53270;BME280;39159;45.634;9.420;2023-08-01T00:13:03;98192.00;;;23.97;100.00
53270;BME280;39159;45.634;9.420;2023-08-01T00:15:29;98180.41;;;24.02;100.00
53270;BME280;39159;45.634;9.420;2023-08-01T00:17:54;98172.34;;;24.08;100.00
53270;BME280;39159;45.634;9.420;2023-08-01T00:20:20;98158.78;;;24.10;100.00
53270;BME280;39159;45.634;9.420;2023-08-01T00:22:45;98160.50;;;24.00;100.00
53270;BME280;39159;45.634;9.420;2023-08-01T00:25:11;98159.28;;;24.01;100.00
53270;BME280;39159;45.634;9.420;2023-08-01T00:27:36;98161.84;;;23.88;100.00
53270;BME280;39159;45.634;9.420;2023-08-01T00:30:02;98153.06;;;23.90;100.00
53270;BME280;39159;45.634;9.420;2023-08-01T00:32:27;98139.97;;;23.87;100.00
53270;BME280;39159;45.634;9.420;2023-08-01T00:34:53;98140.84;;;23.80;100.00
53270;BME280;39159;45.634;9.420;2023-08-01T00:37:18;98131.41;;;23.70;100.00
53270;BME280;39159;45.634;9.420;2023-08-01T00:39:44;98135.94;;;23.57;100.00
53270;BME280;39159;45.634;9.420;2023-08-01T00:42:09;98132.78;;;23.51;100.00
53270;BME280;39159;45.634;9.420;2023-08-01T00:44:34;98121.72;;;23.48;100.00
53270;BME280;39159;45.634;9.420;2023-08-01T00:47:00;98128.16;;;23.37;100.00
53270;BME280;39159;45.634;9.420;2023-08-01T00:49:26;98134.59;;;23.34;100.00
53270;BME280;39159;45.634;9.420;2023-08-01T00:51:51;98148.41;;;23.42;100.00
53270;BME280;39159;45.634;9.420;2023-08-01T00:54:17;98165.44;;;23.51;100.00
53270;BME280;39159;45.634;9.420;2023-08-01T00:56:43;98170.53;;;23.56;100.00
53270;BME280;39159;45.634;9.420;2023-08-01T00:59:10;98152.66;;;23.53;100.00
53270;BME280;39159;45.634;9.420;2023-08-01T01:01:35;98128.16;;;23.41;100.00
53270;BME280;39159;45.634;9.420;2023-08-01T01:04:01;98109.38;;;23.45;100.00
53270;BME280;39159;45.634;9.420;2023-08-01T01:08:55;98087.53;;;23.44;100.00
53270;BME280;39159;45.634;9.420;2023-08-01T01:11:21;98081.69;;;23.34;100.00
53270;BME280;39159;45.634;9.420;2023-08-01T01:13:47;98079.78;;;23.28;100.00
53270;BME280;39159;45.634;9.420;2023-08-01T01:16:12;98080.56;;;23.28;100.00
53270;BME280;39159;45.634;9.420;2023-08-01T01:18:38;98084.13;;;23.29;100.00
53270;BME280;39159;45.634;9.420;2023-08-01T01:21:03;98087.31;;;23.27;100.00
53270;BME280;39159;45.634;9.420;2023-08-01T01:23:30;98085.28;;;23.31;100.00
53270;BME280;39159;45.634;9.420;2023-08-01T01:25:57;98079.81;;;23.21;100.00
53270;BME280;39159;45.634;9.420;2023-08-01T01:28:24;98081.06;;;23.16;100.00
53270;BME280;39159;45.634;9.420;2023-08-01T01:30:51;98072.78;;;23.09;100.00
53270;BME280;39159;45.634;9.420;2023-08-01T01:33:18;98061.75;;;22.98;100.00
53270;BME280;39159;45.634;9.420;2023-08-01T01:35:44;98045.03;;;22.98;100.00
53270;BME280;39159;45.634;9.420;2023-08-01T01:38:09;98049.06;;;22.93;100.00
53270;BME280;39159;45.634;9.420;2023-08-01T01:40:35;98045.59;;;22.82;100.00
53270;BME280;39159;45.634;9.420;2023-08-01T01:43:00;98034.03;;;22.87;100.00
53270;BME280;39159;45.634;9.420;2023-08-01T01:45:26;98024.41;;;22.95;100.00
53270;BME280;39159;45.634;9.420;2023-08-01T01:47:52;98010.03;;;23.04;100.00
53270;BME280;39159;45.634;9.420;2023-08-01T01:50:18;98001.31;;;22.98;100.00
53270;BME280;39159;45.634;9.420;2023-08-01T01:52:46;98015.63;;;23.01;100.00
53270;BME280;39159;45.634;9.420;2023-08-01T01:55:12;98043.03;;;23.02;100.00
53270;BME280;39159;45.634;9.420;2023-08-01T01:57:37;98090.34;;;23.06;100.00
53270;BME280;39159;45.634;9.420;2023-08-01T02:00:04;98132.00;;;23.13;100.00
53270;BME280;39159;45.634;9.420;2023-08-01T02:02:29;98129.16;;;23.16;100.00
53270;BME280;39159;45.634;9.420;2023-08-01T02:04:55;98142.84;;;23.00;100.00
53270;BME280;39159;45.634;9.420;2023-08-01T02:07:20;98135.78;;;22.88;100.00
53270;BME280;39159;45.634;9.420;2023-08-01T02:09:46;98144.00;;;22.50;100.00
53270;BME280;39159;45.634;9.420;2023-08-01T02:12:12;98133.84;;;22.22;100.00
53270;BME280;39159;45.634;9.420;2023-08-01T02:14:39;98102.91;;;22.13;100.00
53270;BME280;39159;45.634;9.420;2023-08-01T02:17:05;98100.56;;;22.04;100.00
53270;BME280;39159;45.634;9.420;2023-08-01T02:19:30;98106.56;;;21.92;100.00
53270;BME280;39159;45.634;9.420;2023-08-01T02:21:56;98106.66;;;21.78;100.00
53270;BME280;39159;45.634;9.420;2023-08-01T02:24:21;98102.78;;;21.53;100.00
53270;BME280;39159;45.634;9.420;2023-08-01T02:26:47;98090.56;;;21.19;100.00
53270;BME280;39159;45.634;9.420;2023-08-01T02:29:13;98084.22;;;21.18;100.00
53270;BME280;39159;45.634;9.420;2023-08-01T02:31:38;98088.22;;;21.10;100.00
53270;BME280;39159;45.634;9.420;2023-08-01T02:34:03;98086.63;;;21.02;100.00
53270;BME280;39159;45.634;9.420;2023-08-01T02:36:29;98092.97;;;21.09;100.00
53270;BME280;39159;45.634;9.420;2023-08-01T02:38:54;98074.31;;;21.21;100.00
53270;BME280;39159;45.634;9.420;2023-08-01T02:41:20;98066.38;;;21.26;100.00
53270;BME280;39159;45.634;9.420;2023-08-01T02:43:45;98067.19;;;21.16;100.00
53270;BME280;39159;45.634;9.420;2023-08-01T02:46:11;98048.56;;;21.13;100.00
53270;BME280;39159;45.634;9.420;2023-08-01T02:48:36;98039.03;;;21.14;100.00
53270;BME280;39159;45.634;9.420;2023-08-01T02:51:02;98042.66;;;21.00;100.00
53270;BME280;39159;45.634;9.420;2023-08-01T02:53:27;98053.34;;;20.98;100.00
53270;BME280;39159;45.634;9.420;2023-08-01T02:55:53;98071.97;;;20.98;100.00
53270;BME280;39159;45.634;9.420;2023-08-01T02:58:18;98067.63;;;20.89;100.00
53270;BME280;39159;45.634;9.420;2023-08-01T03:00:43;98068.03;;;20.91;100.00
53270;BME280;39159;45.634;9.420;2023-08-01T03:03:09;98077.13;;;20.96;100.00
53270;BME280;39159;45.634;9.420;2023-08-01T03:05:36;98075.13;;;21.07;100.00
53270;BME280;39159;45.634;9.420;2023-08-01T03:08:02;98072.75;;;21.13;100.00
53270;BME280;39159;45.634;9.420;2023-08-01T03:10:28;98069.97;;;21.09;100.00
53270;BME280;39159;45.634;9.420;2023-08-01T03:12:53;98069.56;;;21.14;100.00
53270;BME280;39159;45.634;9.420;2023-08-01T03:15:19;98070.31;;;21.25;100.00
53270;BME280;39159;45.634;9.420;2023-08-01T03:17:44;98066.75;;;21.28;100.00
53270;BME280;39159;45.634;9.420;2023-08-01T03:20:10;98062.78;;;21.44;100.00
53270;BME280;39159;45.634;9.420;2023-08-01T03:22:38;98060.41;;;21.42;100.00
53270;BME280;39159;45.634;9.420;2023-08-01T03:25:05;98056.41;;;21.47;100.00
53270;BME280;39159;45.634;9.420;2023-08-01T03:27:35;98047.31;;;21.43;100.00
53270;BME280;39159;45.634;9.420;2023-08-01T03:30:01;98038.16;;;21.39;100.00
53270;BME280;39159;45.634;9.420;2023-08-01T03:32:27;98048.47;;;21.45;100.00
53270;BME280;39159;45.634;9.420;2023-08-01T03:34:52;98059.19;;;21.36;100.00
53270;BME280;39159;45.634;9.420;2023-08-01T03:37:18;98063.97;;;21.39;100.00
53270;BME280;39159;45.634;9.420;2023-08-01T03:39:44;98062.34;;;21.38;100.00
53270;BME280;39159;45.634;9.420;2023-08-01T03:42:09;98052.84;;;21.43;100.00
53270;BME280;39159;45.634;9.420;2023-08-01T03:44:35;98044.13;;;21.44;100.00
53270;BME280;39159;45.634;9.420;2023-08-01T03:47:00;98035.81;;;21.41;100.00
53270;BME280;39159;45.634;9.420;2023-08-01T03:49:26;98035.03;;;21.29;100.00
53270;BME280;39159;45.634;9.420;2023-08-01T03:51:52;98040.56;;;21.33;100.00
53270;BME280;39159;45.634;9.420;2023-08-01T03:54:17;98023.16;;;21.29;100.00
53270;BME280;39159;45.634;9.420;2023-08-01T03:56:42;98025.56;;;21.20;100.00
53270;BME280;39159;45.634;9.420;2023-08-01T03:59:11;98029.91;;;21.21;100.00
53270;BME280;39159;45.634;9.420;2023-08-01T04:01:37;98037.41;;;21.27;100.00
53270;BME280;39159;45.634;9.420;2023-08-01T04:04:02;98037.81;;;21.29;100.00
53270;BME280;39159;45.634;9.420;2023-08-01T04:06:28;98036.19;;;21.36;100.00
53270;BME280;39159;45.634;9.420;2023-08-01T04:08:53;98033.03;;;21.33;100.00
53270;BME280;39159;45.634;9.420;2023-08-01T04:11:19;98027.09;;;21.35;100.00
53270;BME280;39159;45.634;9.420;2023-08-01T04:13:44;98031.06;;;21.30;100.00
53270;BME280;39159;45.634;9.420;2023-08-01T04:16:10;98029.06;;;21.38;100.00
53270;BME280;39159;45.634;9.420;2023-08-01T04:18:35;98031.81;;;21.38;100.00
53270;BME280;39159;45.634;9.420;2023-08-01T04:21:01;98029.03;;;21.52;100.00
53270;BME280;39159;45.634;9.420;2023-08-01T04:23:27;98027.81;;;21.53;100.00
53270;BME280;39159;45.634;9.420;2023-08-01T04:25:52;98021.50;;;21.53;100.00
53270;BME280;39159;45.634;9.420;2023-08-01T04:28:18;98021.44;;;21.64;100.00
53270;BME280;39159;45.634;9.420;2023-08-01T04:30:49;98018.63;;;21.67;100.00
53270;BME280;39159;45.634;9.420;2023-08-01T04:33:14;98017.84;;;21.67;100.00
53270;BME280;39159;45.634;9.420;2023-08-01T04:35:39;98012.34;;;21.60;100.00
53270;BME280;39159;45.634;9.420;2023-08-01T04:38:05;98008.44;;;21.50;100.00
53270;BME280;39159;45.634;9.420;2023-08-01T04:40:30;98005.66;;;21.46;100.00
53270;BME280;39159;45.634;9.420;2023-08-01T04:42:56;98006.44;;;21.47;100.00
53270;BME280;39159;45.634;9.420;2023-08-01T04:45:21;98002.50;;;21.44;100.00
53270;BME280;39159;45.634;9.420;2023-08-01T04:47:47;97991.41;;;21.44;100.00
53270;BME280;39159;45.634;9.420;2023-08-01T04:50:12;97993.75;;;21.49;100.00
53270;BME280;39159;45.634;9.420;2023-08-01T04:52:37;97988.19;;;21.53;100.00
53270;BME280;39159;45.634;9.420;2023-08-01T04:55:03;97986.97;;;21.54;100.00
53270;BME280;39159;45.634;9.420;2023-08-01T04:57:29;97981.03;;;21.56;100.00
53270;BME280;39159;45.634;9.420;2023-08-01T04:59:55;97982.97;;;21.62;100.00
53270;BME280;39159;45.634;9.420;2023-08-01T05:02:20;97974.69;;;21.55;100.00
53270;BME280;39159;45.634;9.420;2023-08-01T05:04:45;97974.69;;;21.55;100.00
53270;BME280;39159;45.634;9.420;2023-08-01T05:07:11;97981.03;;;21.52;100.00
53270;BME280;39159;45.634;9.420;2023-08-01T05:09:36;97978.25;;;21.56;100.00
53270;BME280;39159;45.634;9.420;2023-08-01T05:12:02;97984.19;;;21.61;100.00
53270;BME280;39159;45.634;9.420;2023-08-01T05:14:27;97977.03;;;21.64;100.00
53270;BME280;39159;45.634;9.420;2023-08-01T05:16:53;97978.91;;;21.74;100.00
53270;BME280;39159;45.634;9.420;2023-08-01T05:19:18;97976.91;;;21.78;100.00
53270;BME280;39159;45.634;9.420;2023-08-01T05:21:43;97961.78;;;21.90;100.00
53270;BME280;39159;45.634;9.420;2023-08-01T05:24:09;97961.28;;;21.99;100.00
53270;BME280;39159;45.634;9.420;2023-08-01T05:26:35;97950.94;;;22.06;100.00
53270;BME280;39159;45.634;9.420;2023-08-01T05:29:01;97969.16;;;22.11;100.00
53270;BME280;39159;45.634;9.420;2023-08-01T05:31:26;97979.78;;;22.20;100.00
53270;BME280;39159;45.634;9.420;2023-08-01T05:33:52;97973.88;;;22.14;100.00
53270;BME280;39159;45.634;9.420;2023-08-01T05:36:17;97971.16;;;22.10;100.00
53270;BME280;39159;45.634;9.420;2023-08-01T05:38:42;97968.69;;;22.20;100.00
53270;BME280;39159;45.634;9.420;2023-08-01T05:41:08;97966.22;;;22.32;100.00
53270;BME280;39159;45.634;9.420;2023-08-01T05:43:33;97980.53;;;22.31;100.00
53270;BME280;39159;45.634;9.420;2023-08-01T05:45:59;97978.50;;;22.35;100.00
53270;BME280;39159;45.634;9.420;2023-08-01T05:48:24;97970.97;;;22.32;100.00
53270;BME280;39159;45.634;9.420;2023-08-01T05:50:50;97963.00;;;22.38;100.00
53270;BME280;39159;45.634;9.420;2023-08-01T05:53:15;97959.34;;;22.44;100.00
53270;BME280;39159;45.634;9.420;2023-08-01T05:55:40;97963.28;;;22.50;100.00
53270;BME280;39159;45.634;9.420;2023-08-01T05:58:06;97967.94;;;22.61;100.00
53270;BME280;39159;45.634;9.420;2023-08-01T06:00:31;97962.00;;;22.59;100.00
53270;BME280;39159;45.634;9.420;2023-08-01T06:02:57;97973.06;;;22.66;100.00
53270;BME280;39159;45.634;9.420;2023-08-01T06:05:23;97965.34;;;22.81;100.00
53270;BME280;39159;45.634;9.420;2023-08-01T06:07:48;97966.81;;;22.92;100.00
53270;BME280;39159;45.634;9.420;2023-08-01T06:10:14;97963.97;;;23.00;100.00
53270;BME280;39159;45.634;9.420;2023-08-01T06:12:40;97973.47;;;22.98;100.00
53270;BME280;39159;45.634;9.420;2023-08-01T06:15:05;97974.16;;;23.13;100.00
53270;BME280;39159;45.634;9.420;2023-08-01T06:17:31;97967.69;;;23.20;100.00
53270;BME280;39159;45.634;9.420;2023-08-01T06:19:56;97974.69;;;23.32;100.00
53270;BME280;39159;45.634;9.420;2023-08-01T06:22:22;97971.47;;;23.37;100.00
53270;BME280;39159;45.634;9.420;2023-08-01T06:24:47;97984.88;;;23.46;100.00
53270;BME280;39159;45.634;9.420;2023-08-01T06:27:13;97975.94;;;23.58;100.00
53270;BME280;39159;45.634;9.420;2023-08-01T06:29:40;97985.34;;;23.68;100.00
53270;BME280;39159;45.634;9.420;2023-08-01T06:32:06;97992.03;;;23.77;100.00
53270;BME280;39159;45.634;9.420;2023-08-01T06:34:31;97986.75;;;23.83;100.00
53270;BME280;39159;45.634;9.420;2023-08-01T06:36:57;97986.84;;;24.03;100.00
53270;BME280;39159;45.634;9.420;2023-08-01T06:39:22;97978.28;;;24.17;100.00
53270;BME280;39159;45.634;9.420;2023-08-01T06:41:48;97966.28;;;24.20;100.00
53270;BME280;39159;45.634;9.420;2023-08-01T06:44:13;97960.50;;;24.08;100.00
53270;BME280;39159;45.634;9.420;2023-08-01T06:46:39;97976.66;;;24.20;100.00
53270;BME280;39159;45.634;9.420;2023-08-01T06:49:04;97976.84;;;24.33;100.00
53270;BME280;39159;45.634;9.420;2023-08-01T06:51:29;97974.28;;;24.42;100.00
53270;BME280;39159;45.634;9.420;2023-08-01T06:53:55;97967.50;;;24.43;100.00
53270;BME280;39159;45.634;9.420;2023-08-01T06:56:20;97974.56;;;24.51;100.00
53270;BME280;39159;45.634;9.420;2023-08-01T06:58:47;97980.72;;;24.63;100.00
53270;BME280;39159;45.634;9.420;2023-08-01T07:01:12;97976.53;;;24.74;100.00
53270;BME280;39159;45.634;9.420;2023-08-01T07:03:38;97981.06;;;24.88;100.00
53270;BME280;39159;45.634;9.420;2023-08-01T07:06:03;97976.06;;;24.99;100.00
53270;BME280;39159;45.634;9.420;2023-08-01T07:08:28;97983.56;;;25.02;100.00
53270;BME280;39159;45.634;9.420;2023-08-01T07:10:54;97973.50;;;25.09;100.00
53270;BME280;39159;45.634;9.420;2023-08-01T07:13:19;97960.88;;;25.00;100.00
53270;BME280;39159;45.634;9.420;2023-08-01T07:15:45;97967.53;;;24.87;100.00
53270;BME280;39159;45.634;9.420;2023-08-01T07:18:11;97969.19;;;24.84;100.00
53270;BME280;39159;45.634;9.420;2023-08-01T07:20:36;97980.97;;;24.92;100.00
53270;BME280;39159;45.634;9.420;2023-08-01T07:23:02;97970.13;;;24.97;100.00
53270;BME280;39159;45.634;9.420;2023-08-01T07:25:27;97972.56;;;24.95;100.00
53270;BME280;39159;45.634;9.420;2023-08-01T07:27:52;97963.53;;;25.08;100.00
53270;BME280;39159;45.634;9.420;2023-08-01T07:30:18;97959.72;;;25.18;100.00
53270;BME280;39159;45.634;9.420;2023-08-01T07:32:43;97963.78;;;25.37;100.00
53270;BME280;39159;45.634;9.420;2023-08-01T07:35:09;97947.56;;;25.48;100.00
53270;BME280;39159;45.634;9.420;2023-08-01T07:37:35;97950.50;;;25.77;100.00
53270;BME280;39159;45.634;9.420;2023-08-01T07:40:00;97946.47;;;25.78;100.00
53270;BME280;39159;45.634;9.420;2023-08-01T07:42:26;97945.94;;;25.31;100.00
53270;BME280;39159;45.634;9.420;2023-08-01T07:44:51;97953.25;;;25.25;100.00
53270;BME280;39159;45.634;9.420;2023-08-01T07:47:16;97955.88;;;25.12;100.00
53270;BME280;39159;45.634;9.420;2023-08-01T07:49:42;97955.03;;;25.35;100.00
53270;BME280;39159;45.634;9.420;2023-08-01T07:52:08;97958.19;;;25.37;100.00
53270;BME280;39159;45.634;9.420;2023-08-01T07:54:33;97950.06;;;25.42;100.00
53270;BME280;39159;45.634;9.420;2023-08-01T07:56:59;97961.31;;;25.19;100.00
53270;BME280;39159;45.634;9.420;2023-08-01T07:59:24;97945.22;;;25.27;100.00
53270;BME280;39159;45.634;9.420;2023-08-01T08:01:49;97942.56;;;25.39;100.00
53270;BME280;39159;45.634;9.420;2023-08-01T08:04:15;97953.56;;;25.47;100.00
53270;BME280;39159;45.634;9.420;2023-08-01T08:06:40;97955.00;;;25.55;100.00
53270;BME280;39159;45.634;9.420;2023-08-01T08:09:06;97951.38;;;25.38;100.00
53270;BME280;39159;45.634;9.420;2023-08-01T08:11:31;97945.94;;;25.31;100.00
53270;BME280;39159;45.634;9.420;2023-08-01T08:13:58;97937.63;;;25.27;100.00
53270;BME280;39159;45.634;9.420;2023-08-01T08:16:24;97938.41;;;25.28;100.00
53270;BME280;39159;45.634;9.420;2023-08-01T08:18:49;97944.81;;;25.28;100.00
53270;BME280;39159;45.634;9.420;2023-08-01T08:21:15;97946.09;;;25.23;100.00
53270;BME280;39159;45.634;9.420;2023-08-01T08:23:40;97942.19;;;25.17;100.00
53270;BME280;39159;45.634;9.420;2023-08-01T08:26:06;97939.06;;;25.35;100.00
53270;BME280;39159;45.634;9.420;2023-08-01T08:28:33;97935.63;;;25.64;100.00
53270;BME280;39159;45.634;9.420;2023-08-01T08:30:59;97927.06;;;25.71;96.75
53270;BME280;39159;45.634;9.420;2023-08-01T08:33:25;97929.22;;;26.00;95.59
53270;BME280;39159;45.634;9.420;2023-08-01T08:35:51;97928.69;;;26.21;97.15
53270;BME280;39159;45.634;9.420;2023-08-01T08:38:17;97923.72;;;26.13;95.67
53270;BME280;39159;45.634;9.420;2023-08-01T08:41:10;97921.94;;;26.19;96.95
53270;BME280;39159;45.634;9.420;2023-08-01T08:43:34;97921.44;;;26.08;96.50
53270;BME280;39159;45.634;9.420;2023-08-01T08:46:00;97918.03;;;26.16;96.91
53270;BME280;39159;45.634;9.420;2023-08-01T08:48:26;97924.16;;;26.11;97.08
53270;BME280;39159;45.634;9.420;2023-08-01T08:50:54;97922.50;;;25.97;97.78
53270;BME280;39159;45.634;9.420;2023-08-01T08:53:20;97924.84;;;25.99;96.86
53270;BME280;39159;45.634;9.420;2023-08-01T08:55:47;97929.22;;;26.00;97.73
53270;BME280;39159;45.634;9.420;2023-08-01T08:58:13;97921.38;;;25.95;100.00
53270;BME280;39159;45.634;9.420;2023-08-01T09:00:38;97923.25;;;26.14;100.00
53270;BME280;39159;45.634;9.420;2023-08-01T09:03:05;97917.56;;;25.85;100.00
53270;BME280;39159;45.634;9.420;2023-08-01T09:05:34;97922.28;;;25.72;100.00
53270;BME280;39159;45.634;9.420;2023-08-01T09:08:04;97928.03;;;25.81;100.00
53270;BME280;39159;45.634;9.420;2023-08-01T09:10:32;97919.81;;;25.74;100.00
53270;BME280;39159;45.634;9.420;2023-08-01T09:12:57;97911.38;;;25.77;100.00
53270;BME280;39159;45.634;9.420;2023-08-01T09:15:25;97915.47;;;25.73;100.00
53270;BME280;39159;45.634;9.420;2023-08-01T09:17:54;97906.56;;;25.78;100.00
53270;BME280;39159;45.634;9.420;2023-08-01T09:20:28;97899.22;;;25.68;100.00
53270;BME280;39159;45.634;9.420;2023-08-01T09:22:54;97891.53;;;25.72;100.00
53270;BME280;39159;45.634;9.420;2023-08-01T09:25:20;97893.13;;;25.73;100.00
53270;BME280;39159;45.634;9.420;2023-08-01T09:27:55;97890.56;;;25.62;100.00
53270;BME280;39159;45.634;9.420;2023-08-01T09:30:20;97892.06;;;25.50;100.00
53270;BME280;39159;45.634;9.420;2023-08-01T09:32:55;97893.69;;;25.48;100.00
53270;BME280;39159;45.634;9.420;2023-08-01T09:35:21;97889.50;;;25.56;100.00
53270;BME280;39159;45.634;9.420;2023-08-01T09:37:48;97890.22;;;25.60;100.00
53270;BME280;39159;45.634;9.420;2023-08-01T09:40:14;97888.81;;;25.52;100.00
53270;BME280;39159;45.634;9.420;2023-08-01T09:42:45;97884.56;;;25.63;100.00
53270;BME280;39159;45.634;9.420;2023-08-01T09:45:15;97880.34;;;25.72;100.00
53270;BME280;39159;45.634;9.420;2023-08-01T09:47:41;97882.38;;;25.71;100.00
53270;BME280;39159;45.634;9.420;2023-08-01T09:50:09;97875.84;;;25.94;100.00
53270;BME280;39159;45.634;9.420;2023-08-01T09:52:36;97865.47;;;25.95;100.00
53270;BME280;39159;45.634;9.420;2023-08-01T09:55:01;97867.44;;;26.11;98.41
53270;BME280;39159;45.634;9.420;2023-08-01T09:57:29;97869.63;;;26.03;98.36
53270;BME280;39159;45.634;9.420;2023-08-01T09:59:56;97860.00;;;26.20;96.56
53270;BME280;39159;45.634;9.420;2023-08-01T10:02:25;97859.09;;;26.40;95.96
53270;BME280;39159;45.634;9.420;2023-08-01T10:04:53;97861.59;;;26.51;96.34
53270;BME280;39159;45.634;9.420;2023-08-01T10:07:24;97858.63;;;26.58;99.02
53270;BME280;39159;45.634;9.420;2023-08-01T10:09:54;97849.72;;;26.76;99.44
53270;BME280;39159;45.634;9.420;2023-08-01T10:12:22;97849.31;;;27.03;97.76
53270;BME280;39159;45.634;9.420;2023-08-01T10:14:48;97848.16;;;27.42;95.20
53270;BME280;39159;45.634;9.420;2023-08-01T10:17:16;97857.44;;;27.65;88.79
53270;BME280;39159;45.634;9.420;2023-08-01T10:19:42;97857.63;;;28.09;84.68
53270;BME280;39159;45.634;9.420;2023-08-01T10:22:08;97842.91;;;28.52;84.25
53270;BME280;39159;45.634;9.420;2023-08-01T10:24:35;97850.56;;;28.61;83.25
53270;BME280;39159;45.634;9.420;2023-08-01T10:27:13;97851.75;;;28.95;82.26
53270;BME280;39159;45.634;9.420;2023-08-01T10:29:38;97849.91;;;29.01;79.95
53270;BME280;39159;45.634;9.420;2023-08-01T10:32:06;97838.06;;;29.28;77.05
53270;BME280;39159;45.634;9.420;2023-08-01T10:34:32;97842.41;;;28.98;76.51
53270;BME280;39159;45.634;9.420;2023-08-01T10:36:58;97851.50;;;28.58;76.73
53270;BME280;39159;45.634;9.420;2023-08-01T10:39:26;97842.09;;;28.52;75.19
53270;BME280;39159;45.634;9.420;2023-08-01T10:42:02;97839.25;;;28.30;77.40
53270;BME280;39159;45.634;9.420;2023-08-01T10:44:28;97842.75;;;28.21;81.23
53270;BME280;39159;45.634;9.420;2023-08-01T10:47:00;97843.47;;;28.69;79.90
53270;BME280;39159;45.634;9.420;2023-08-01T10:49:40;97839.34;;;28.61;80.71
53270;BME280;39159;45.634;9.420;2023-08-01T10:52:21;97826.28;;;28.45;81.48
53270;BME280;39159;45.634;9.420;2023-08-01T10:55:04;97824.09;;;28.27;82.15
53270;BME280;39159;45.634;9.420;2023-08-01T10:57:35;97822.63;;;28.36;82.79
53270;BME280;39159;45.634;9.420;2023-08-01T11:00:00;97817.44;;;28.12;82.38
53270;BME280;39159;45.634;9.420;2023-08-01T11:02:30;97811.00;;;28.24;84.55
53270;BME280;39159;45.634;9.420;2023-08-01T11:04:59;97806.16;;;28.60;80.84
53270;BME280;39159;45.634;9.420;2023-08-01T11:07:25;97810.06;;;28.62;79.06
53270;BME280;39159;45.634;9.420;2023-08-01T11:10:06;97809.44;;;28.45;77.84
53270;BME280;39159;45.634;9.420;2023-08-01T11:12:42;97810.81;;;28.41;81.15
53270;BME280;39159;45.634;9.420;2023-08-01T11:15:10;97810.41;;;27.95;81.07
53270;BME280;39159;45.634;9.420;2023-08-01T11:17:37;97803.72;;;28.14;81.69
53270;BME280;39159;45.634;9.420;2023-08-01T11:20:12;97803.16;;;28.19;79.28
53270;BME280;39159;45.634;9.420;2023-08-01T11:22:49;97805.06;;;27.87;81.39
53270;BME280;39159;45.634;9.420;2023-08-01T11:25:15;97799.09;;;27.98;82.68
53270;BME280;39159;45.634;9.420;2023-08-01T11:27:40;97778.94;;;27.90;81.32
53270;BME280;39159;45.634;9.420;2023-08-01T11:30:06;97762.59;;;28.11;82.99
53270;BME280;39159;45.634;9.420;2023-08-01T11:32:33;97762.06;;;28.25;81.12
53270;BME280;39159;45.634;9.420;2023-08-01T11:35:00;97757.53;;;28.28;78.32
53270;BME280;39159;45.634;9.420;2023-08-01T11:37:26;97764.59;;;28.10;78.53
53270;BME280;39159;45.634;9.420;2023-08-01T11:39:52;97765.13;;;28.18;80.85
53270;BME280;39159;45.634;9.420;2023-08-01T11:42:17;97755.72;;;28.34;77.98
53270;BME280;39159;45.634;9.420;2023-08-01T11:44:43;97756.53;;;28.57;78.98
53270;BME280;39159;45.634;9.420;2023-08-01T11:47:16;97740.59;;;28.54;73.70
53270;BME280;39159;45.634;9.420;2023-08-01T11:49:49;97761.44;;;28.75;71.57
53270;BME280;39159;45.634;9.420;2023-08-01T11:52:28;97768.00;;;28.71;72.19
53270;BME280;39159;45.634;9.420;2023-08-01T11:54:54;97745.91;;;29.14;72.91
53270;BME280;39159;45.634;9.420;2023-08-01T11:57:23;97735.41;;;29.64;72.05
53270;BME280;39159;45.634;9.420;2023-08-01T11:59:50;97734.78;;;29.60;71.25
53270;BME280;39159;45.634;9.420;2023-08-01T12:02:26;97747.75;;;29.67;69.20
53270;BME280;39159;45.634;9.420;2023-08-01T12:04:53;97735.53;;;29.42;68.09
53270;BME280;39159;45.634;9.420;2023-08-01T12:07:19;97736.28;;;29.33;69.28
53270;BME280;39159;45.634;9.420;2023-08-01T12:12:21;97757.34;;;29.20;70.22
53270;BME280;39159;45.634;9.420;2023-08-01T12:14:47;97740.19;;;29.36;69.89
53270;BME280;39159;45.634;9.420;2023-08-01T12:17:12;97727.56;;;29.50;68.26
53270;BME280;39159;45.634;9.420;2023-08-01T12:19:38;97743.34;;;29.47;68.69
53270;BME280;39159;45.634;9.420;2023-08-01T12:22:03;97742.22;;;29.26;67.67
53270;BME280;39159;45.634;9.420;2023-08-01T12:24:29;97740.53;;;29.07;71.48
53270;BME280;39159;45.634;9.420;2023-08-01T12:26:54;97733.94;;;29.41;69.93
53270;BME280;39159;45.634;9.420;2023-08-01T12:29:20;97744.34;;;29.81;69.63
53270;BME280;39159;45.634;9.420;2023-08-01T12:31:45;97748.41;;;30.08;66.56
53270;BME280;39159;45.634;9.420;2023-08-01T12:34:11;97743.41;;;30.49;63.71
53270;BME280;39159;45.634;9.420;2023-08-01T12:36:36;97734.25;;;30.72;60.70
53270;BME280;39159;45.634;9.420;2023-08-01T12:39:02;97745.56;;;30.63;64.62
53270;BME280;39159;45.634;9.420;2023-08-01T12:41:28;97730.94;;;30.92;62.48
53270;BME280;39159;45.634;9.420;2023-08-01T12:43:53;97726.06;;;31.02;61.31
53270;BME280;39159;45.634;9.420;2023-08-01T12:46:19;97737.75;;;30.58;63.42
53270;BME280;39159;45.634;9.420;2023-08-01T12:48:45;97727.06;;;30.71;61.78
53270;BME280;39159;45.634;9.420;2023-08-01T12:51:11;97728.88;;;31.02;63.11
53270;BME280;39159;45.634;9.420;2023-08-01T12:53:36;97729.63;;;30.60;62.43